Jacumba, California
Current Conditions -  °F | °C
As of 7:56 AM on Thursday 29 Jan 2015 (Local Time) from KNJK Reporting Station
Overcast Overcast  
Wind Chill: 60°   Ceiling: 15000
Heat Index: 60°   Visibility: 10mi
Dew Point: 51°   Wind: 7mph
Humidity: 72%   Direction: 300°WNW
Pressure: 30.07"   Gusts: NA
Location:  32.62°N, 116.19°W
Report Text: KNJK 291556Z 30006KT 10SM OVC150 16/11 A3007 RMK AO2 SLP199 T01560106
Loading
Personal Weather Stations






























Interactive Weather Map New forecast layout! Learn more

10-Day Weather Forecast

Advertisements
Track Severe Weather on mobile